Terminal Aerodrome Forecast
Issued by NWS

Home | Current Version | Previous Version | Graphics & Text | Print | Product List | Glossary On
Versions: 1 2 3 4 5 6 7 8 9 10 11 12 13 14 15 16 17 18 19
000
FTUS43 KPAH 242100 AAA
TAFCGI
TAF AMD
KCGI 242116Z 2421/2518 26010KT P6SM SCT015 BKN025
      TEMPO 2421/2422 5SM -RA BKN015
     FM250600 25007KT P6SM SCT025
     FM251400 20006KT P6SM SCT250=

USA.gov is the U.S. government's official web portal to all federal, state and local government web resources and services.